Time;durP1;ratioP1;P1;durP2;ratioP2;P2;SDS_P1;SDS_P2;PMS_P1;PMS_P2;Temp;Humidity;BMP_temperature;BMP_pressure;BME280_temperature;BME280_humidity;BME280_pressure;Samples;Min_cycle;Max_cycle;Signal;HPM_P1;HPM_P2
2021/08/30 00:01:49;;;;;;;12.80;11.67;;;18.50;99.90;;;;;;5013632;28;20214;-79
2021/08/30 00:04:15;;;;;;;13.10;11.90;;;18.50;99.90;;;;;;5014372;28;20167;-79
2021/08/30 00:06:41;;;;;;;12.43;11.33;;;18.60;99.90;;;;;;5013348;28;20175;-79
2021/08/30 00:09:10;;;;;;;12.20;11.20;;;18.60;99.90;;;;;;5013107;28;20187;-79
2021/08/30 00:11:36;;;;;;;10.30;9.50;;;18.60;99.90;;;;;;5013231;28;20694;-79
2021/08/30 00:14:04;;;;;;;11.03;10.13;;;18.60;99.90;;;;;;5013072;28;20561;-79
2021/08/30 00:16:30;;;;;;;12.07;10.90;;;18.60;99.90;;;;;;4996959;28;20573;-79
2021/08/30 00:18:56;;;;;;;11.20;10.30;;;18.60;99.90;;;;;;5018746;28;20597;-79
2021/08/30 00:21:22;;;;;;;13.00;11.90;;;18.70;99.90;;;;;;5013849;28;20576;-79
2021/08/30 00:23:48;;;;;;;12.23;11.23;;;18.70;99.90;;;;;;5013176;28;20581;-79
2021/08/30 00:26:13;;;;;;;12.93;11.77;;;18.70;99.90;;;;;;5013424;28;20542;-79
2021/08/30 00:28:40;;;;;;;12.63;11.63;;;18.70;99.90;;;;;;5014021;28;20245;-79
2021/08/30 00:31:06;;;;;;;13.47;12.23;;;18.70;99.90;;;;;;5014359;28;20214;-79
2021/08/30 00:33:32;;;;;;;13.30;12.27;;;18.70;99.90;;;;;;5013040;28;20887;-79
2021/08/30 00:35:58;;;;;;;13.30;12.00;;;18.70;99.90;;;;;;5014137;28;20573;-79
2021/08/30 00:38:24;;;;;;;12.93;11.83;;;18.70;99.90;;;;;;5013909;28;20171;-79
2021/08/30 00:40:50;;;;;;;12.17;11.17;;;18.70;99.90;;;;;;5013934;28;20186;-79
2021/08/30 00:43:15;;;;;;;13.10;11.90;;;18.70;99.90;;;;;;5016993;28;20969;-79
2021/08/30 00:45:41;;;;;;;12.07;11.07;;;18.70;99.90;;;;;;5016932;28;20269;-79
2021/08/30 00:48:07;;;;;;;11.57;10.57;;;18.70;99.90;;;;;;5022979;28;20976;-79
2021/08/30 00:50:33;;;;;;;12.23;11.23;;;18.70;99.90;;;;;;5013567;28;20234;-79
2021/08/30 00:52:59;;;;;;;11.63;10.67;;;18.70;99.90;;;;;;5012457;28;20573;-79
2021/08/30 00:55:25;;;;;;;9.90;9.10;;;18.70;99.90;;;;;;4995900;28;20562;-79
2021/08/30 00:57:51;;;;;;;10.87;9.97;;;18.70;99.90;;;;;;5013506;28;20166;-79
2021/08/30 01:00:17;;;;;;;12.70;9.87;;;18.80;99.90;;;;;;5013282;28;20601;-79
2021/08/30 01:02:44;;;;;;;13.73;8.73;;;18.80;99.90;;;;;;5013367;28;20588;-79
2021/08/30 01:05:12;;;;;;;11.07;10.07;;;18.80;99.90;;;;;;5013181;28;20569;-79
2021/08/30 01:07:52;;;;;;;10.80;9.90;;;18.80;99.90;;;;;;5011970;28;20592;-79
2021/08/30 01:10:27;;;;;;;11.20;10.10;;;18.80;99.90;;;;;;5011815;28;20632;-79
2021/08/30 01:13:00;;;;;;;11.03;9.33;;;18.80;99.90;;;;;;5012014;28;20557;-79
2021/08/30 01:15:39;;;;;;;11.40;10.40;;;18.80;99.90;;;;;;5011923;28;20629;-79
2021/08/30 01:18:08;;;;;;;11.60;10.50;;;18.80;99.90;;;;;;5012919;28;20589;-79
2021/08/30 01:21:13;;;;;;;11.37;10.37;;;18.80;99.90;;;;;;5012745;28;20952;-79
2021/08/30 01:23:40;;;;;;;9.20;8.30;;;18.80;99.90;;;;;;5008254;28;20589;-79
2021/08/30 01:26:09;;;;;;;11.43;10.33;;;18.80;99.90;;;;;;5011632;28;20558;-79
2021/08/30 01:28:40;;;;;;;10.23;9.33;;;18.80;99.90;;;;;;5011718;28;20592;-79
2021/08/30 01:31:21;;;;;;;10.63;9.63;;;18.80;99.90;;;;;;5011371;28;20687;-79
2021/08/30 01:33:49;;;;;;;11.40;10.47;;;18.80;99.90;;;;;;5012823;28;20564;-79
2021/08/30 01:36:17;;;;;;;11.20;9.97;;;18.80;99.90;;;;;;5012636;28;20580;-79
2021/08/30 01:38:45;;;;;;;11.33;10.30;;;18.80;99.90;;;;;;4995702;28;20603;-79
2021/08/30 01:41:14;;;;;;;10.90;9.90;;;18.80;99.90;;;;;;5012793;28;20585;-78
2021/08/30 01:43:40;;;;;;;11.87;10.67;;;18.80;99.90;;;;;;5011547;28;20590;-79
2021/08/30 01:46:06;;;;;;;13.57;12.17;;;18.80;99.90;;;;;;5012662;28;20573;-79
2021/08/30 01:48:33;;;;;;;14.10;12.70;;;18.80;99.90;;;;;;5012502;28;20593;-79
2021/08/30 01:51:00;;;;;;;14.77;12.30;;;18.80;99.90;;;;;;5011313;28;20621;-79
2021/08/30 01:53:26;;;;;;;14.60;13.10;;;18.80;99.90;;;;;;5012373;28;20557;-79
2021/08/30 01:55:57;;;;;;;15.23;12.67;;;18.90;99.90;;;;;;5011193;28;20620;-79
2021/08/30 02:00:51;;;;;;;14.80;13.47;;;18.90;99.90;;;;;;5012269;28;20585;-79
2021/08/30 02:03:24;;;;;;;14.30;12.90;;;18.90;99.90;;;;;;5012429;28;20593;-79
2021/08/30 02:05:54;;;;;;;13.47;12.17;;;18.80;99.90;;;;;;5010995;28;20569;-79
2021/08/30 02:08:22;;;;;;;16.57;15.07;;;18.90;99.90;;;;;;5011207;28;20653;-79
2021/08/30 02:10:50;;;;;;;16.63;15.13;;;18.90;99.90;;;;;;5011033;28;20640;-79
2021/08/30 02:13:17;;;;;;;14.77;13.30;;;18.90;99.90;;;;;;5012128;28;20596;-79
2021/08/30 02:15:45;;;;;;;15.67;13.57;;;18.90;99.90;;;;;;5012304;28;20961;-79
2021/08/30 02:18:32;;;;;;;15.10;13.50;;;18.80;99.90;;;;;;5012052;28;20600;-79
2021/08/30 02:21:17;;;;;;;15.30;13.90;;;18.80;99.90;;;;;;5013110;28;20593;-79
2021/08/30 02:23:56;;;;;;;12.13;10.93;;;18.90;99.90;;;;;;5010621;28;21164;-79
2021/08/30 02:26:28;;;;;;;14.83;13.40;;;18.80;99.90;;;;;;5012146;28;20604;-79
2021/08/30 02:28:54;;;;;;;14.70;13.40;;;18.90;99.90;;;;;;5011710;28;20933;-79
2021/08/30 02:31:21;;;;;;;14.17;12.47;;;18.80;99.90;;;;;;5013936;28;21018;-79
2021/08/30 02:33:49;;;;;;;15.67;14.07;;;18.90;99.90;;;;;;5014898;28;20553;-79
2021/08/30 02:36:18;;;;;;;16.80;15.00;;;18.80;99.90;;;;;;4998862;28;20608;-79
2021/08/30 02:38:44;;;;;;;16.87;15.17;;;18.80;99.90;;;;;;5016188;28;20561;-78
2021/08/30 02:41:11;;;;;;;15.10;13.63;;;18.80;99.90;;;;;;5015595;28;20573;-79
2021/08/30 02:43:37;;;;;;;15.33;14.07;;;18.80;99.90;;;;;;5015371;28;20693;-79
2021/08/30 02:46:03;;;;;;;17.60;13.93;;;18.80;99.90;;;;;;5016925;28;20598;-79
2021/08/30 02:48:31;;;;;;;17.37;15.53;;;18.80;99.90;;;;;;5015806;28;20569;-79
2021/08/30 02:50:57;;;;;;;14.77;13.47;;;18.80;99.90;;;;;;5014569;28;20240;-79
2021/08/30 02:53:24;;;;;;;15.20;13.80;;;18.80;99.90;;;;;;5015604;28;20678;-79
2021/08/30 02:55:52;;;;;;;15.37;13.87;;;18.80;99.90;;;;;;5015691;28;20581;-79
2021/08/30 02:58:20;;;;;;;18.67;14.40;;;18.80;99.90;;;;;;5014485;28;20565;-79
2021/08/30 03:00:46;;;;;;;15.10;13.63;;;18.80;99.90;;;;;;5015532;28;20679;-79
2021/08/30 03:03:13;;;;;;;17.23;15.53;;;18.80;99.90;;;;;;5014310;28;20569;-79
2021/08/30 03:05:42;;;;;;;16.47;14.87;;;18.80;99.90;;;;;;5015462;28;20565;-79
2021/08/30 03:08:08;;;;;;;15.77;14.17;;;18.80;99.90;;;;;;5014257;28;20730;-79
2021/08/30 03:10:34;;;;;;;17.60;15.90;;;18.80;99.90;;;;;;5013984;28;21261;-79
2021/08/30 03:13:04;;;;;;;17.53;15.73;;;18.70;99.90;;;;;;5015403;28;20632;-79
2021/08/30 03:15:32;;;;;;;14.70;13.17;;;18.70;99.90;;;;;;5014167;28;20565;-79
2021/08/30 03:18:01;;;;;;;16.83;15.23;;;18.70;99.90;;;;;;5015574;28;20937;-79
2021/08/30 03:20:28;;;;;;;16.40;14.83;;;18.70;99.90;;;;;;5015113;28;20647;-79
2021/08/30 03:22:57;;;;;;;17.50;15.90;;;18.70;99.90;;;;;;5014230;28;20668;-79
2021/08/30 03:25:27;;;;;;;15.97;14.50;;;18.70;99.90;;;;;;5013641;28;20574;-79
2021/08/30 03:27:54;;;;;;;17.13;15.53;;;18.70;99.90;;;;;;5015133;28;20569;-79
2021/08/30 03:30:22;;;;;;;17.73;15.93;;;18.70;99.90;;;;;;5019915;23;20673;-77
2021/08/30 03:32:48;;;;;;;19.20;17.20;;;18.70;99.90;;;;;;4980131;28;20598;-77
2021/08/30 03:35:15;;;;;;;16.47;14.80;;;18.70;99.90;;;;;;4978030;28;20562;-76
2021/08/30 03:37:42;;;;;;;18.50;16.60;;;18.70;99.90;;;;;;4995903;28;20554;-77
2021/08/30 03:40:10;;;;;;;18.03;16.33;;;18.70;99.90;;;;;;4962758;28;20598;-77
2021/08/30 03:42:38;;;;;;;17.63;15.90;;;18.70;99.90;;;;;;4996772;28;20566;-77
2021/08/30 03:45:05;;;;;;;17.37;15.70;;;18.70;99.90;;;;;;4979526;28;20567;-76
2021/08/30 03:47:32;;;;;;;16.37;14.47;;;18.70;99.90;;;;;;4996366;28;20566;-78
2021/08/30 03:50:02;;;;;;;16.53;15.00;;;18.70;99.90;;;;;;4995687;28;21013;-77
2021/08/30 03:52:29;;;;;;;15.47;13.87;;;18.70;99.90;;;;;;4978295;28;20594;-77
2021/08/30 03:54:55;;;;;;;18.90;17.20;;;18.70;99.90;;;;;;4996432;28;20574;-77
2021/08/30 03:57:23;;;;;;;17.93;16.17;;;18.70;99.90;;;;;;4979319;28;20582;-77
2021/08/30 03:59:54;;;;;;;19.50;17.60;;;18.70;99.90;;;;;;4996662;28;20190;-76
2021/08/30 04:02:24;;;;;;;18.00;16.10;;;18.60;99.90;;;;;;4997801;28;20602;-78
2021/08/30 04:04:51;;;;;;;16.90;15.30;;;18.70;99.90;;;;;;4995791;28;20566;-78
2021/08/30 04:07:19;;;;;;;18.60;16.80;;;18.60;99.90;;;;;;4996433;28;20592;-77
2021/08/30 04:09:45;;;;;;;18.17;16.40;;;18.60;99.90;;;;;;4983216;28;20580;-77
2021/08/30 04:12:11;;;;;;;18.27;16.47;;;18.60;99.90;;;;;;4994816;28;20625;-77
2021/08/30 04:14:38;;;;;;;18.77;16.97;;;18.60;99.90;;;;;;4977683;28;20999;-77
2021/08/30 04:17:04;;;;;;;17.47;15.67;;;18.60;99.90;;;;;;4994250;28;20562;-77
2021/08/30 04:19:30;;;;;;;17.60;15.90;;;18.60;99.90;;;;;;4994534;28;21385;-77
2021/08/30 04:21:56;;;;;;;14.80;13.33;;;18.60;99.90;;;;;;4994497;28;20178;-77
2021/08/30 04:24:21;;;;;;;18.20;16.30;;;18.60;99.90;;;;;;4977224;28;20179;-77
2021/08/30 04:26:47;;;;;;;18.70;17.00;;;18.60;99.90;;;;;;4976461;28;20282;-77
2021/08/30 04:29:13;;;;;;;20.23;18.27;;;18.60;99.90;;;;;;4994970;28;20199;-77
2021/08/30 04:31:38;;;;;;;20.37;18.47;;;18.60;99.90;;;;;;4994294;28;20262;-77
2021/08/30 04:34:04;;;;;;;19.00;17.10;;;18.60;99.90;;;;;;4995529;28;20167;-78
2021/08/30 04:36:30;;;;;;;17.20;15.60;;;18.60;99.90;;;;;;4982616;28;20179;-78
2021/08/30 04:38:56;;;;;;;18.30;16.60;;;18.60;99.90;;;;;;4993997;28;20182;-77
2021/08/30 04:41:21;;;;;;;18.60;16.90;;;18.60;99.90;;;;;;4993933;28;20618;-77
2021/08/30 04:43:49;;;;;;;20.37;18.37;;;18.60;99.90;;;;;;4961388;28;20676;-76
2021/08/30 04:46:15;;;;;;;20.17;18.37;;;18.60;99.90;;;;;;4995169;28;20206;-77
2021/08/30 04:48:40;;;;;;;21.67;19.37;;;18.70;99.90;;;;;;4995187;28;20570;-77
2021/08/30 04:51:07;;;;;;;19.50;17.70;;;18.70;99.90;;;;;;4961552;28;20302;-78
2021/08/30 04:53:32;;;;;;;17.87;16.13;;;18.70;99.90;;;;;;4992781;28;20199;-78
2021/08/30 04:55:58;;;;;;;18.70;17.00;;;18.70;99.90;;;;;;4999743;28;20569;-79
2021/08/30 04:58:24;;;;;;;17.40;15.80;;;18.70;99.90;;;;;;4995946;28;20180;-79
2021/08/30 05:00:50;;;;;;;20.90;18.80;;;18.70;99.90;;;;;;4997482;28;20195;-78
2021/08/30 05:03:16;;;;;;;19.63;17.83;;;18.70;99.90;;;;;;4996008;28;20179;-79
2021/08/30 05:05:41;;;;;;;19.63;17.83;;;18.70;99.90;;;;;;4979180;28;20581;-79
2021/08/30 05:08:07;;;;;;;19.60;17.80;;;18.70;99.90;;;;;;4994980;28;20179;-79
2021/08/30 05:10:33;;;;;;;18.97;17.03;;;18.70;99.90;;;;;;4996457;28;20202;-79
2021/08/30 05:12:59;;;;;;;19.57;17.77;;;18.70;99.90;;;;;;4977806;28;20175;-79
2021/08/30 05:15:27;;;;;;;20.57;18.83;;;18.70;99.90;;;;;;4994478;28;20177;-79
2021/08/30 05:17:53;;;;;;;21.20;19.20;;;18.70;99.90;;;;;;4977277;28;20163;-79
2021/08/30 05:20:19;;;;;;;20.43;18.53;;;18.70;99.90;;;;;;4977207;28;21039;-79
2021/08/30 05:22:45;;;;;;;21.07;18.97;;;18.70;99.90;;;;;;4997554;28;20174;-80
2021/08/30 05:25:13;;;;;;;20.40;18.30;;;18.70;99.90;;;;;;4980596;28;20163;-80
2021/08/30 05:27:40;;;;;;;21.60;19.20;;;18.70;99.90;;;;;;4999132;28;20566;-80
2021/08/30 05:30:07;;;;;;;21.30;19.40;;;18.70;99.90;;;;;;4999282;28;20980;-80
2021/08/30 05:32:32;;;;;;;21.20;19.20;;;18.70;99.90;;;;;;5002607;28;20629;-79
2021/08/30 05:34:58;;;;;;;19.83;17.90;;;18.70;99.90;;;;;;5004071;28;20914;-80
2021/08/30 05:37:24;;;;;;;20.63;18.50;;;18.70;99.90;;;;;;5001365;28;20261;-80
2021/08/30 05:39:50;;;;;;;21.60;19.57;;;18.70;99.90;;;;;;4988000;28;20605;-80
2021/08/30 05:42:16;;;;;;;22.13;20.07;;;18.70;99.90;;;;;;4980699;28;20266;-80
2021/08/30 05:44:41;;;;;;;21.30;19.30;;;18.70;99.90;;;;;;4959361;28;20175;-79
2021/08/30 05:47:08;;;;;;;20.63;18.70;;;18.70;99.90;;;;;;4992519;28;20593;-78
2021/08/30 05:49:33;;;;;;;19.33;17.43;;;18.70;99.90;;;;;;4992610;28;20666;-79
2021/08/30 05:51:59;;;;;;;22.37;20.10;;;18.70;99.90;;;;;;4992671;28;20622;-78
2021/08/30 05:54:25;;;;;;;22.90;20.50;;;18.70;99.90;;;;;;4992749;28;20171;-78
2021/08/30 05:56:51;;;;;;;22.00;19.93;;;18.70;99.90;;;;;;4975016;28;20186;-78
2021/08/30 05:59:16;;;;;;;26.23;18.97;;;18.80;99.90;;;;;;4994031;28;20578;-78
2021/08/30 06:01:42;;;;;;;19.33;17.43;;;18.80;99.90;;;;;;4992997;28;20222;-80
2021/08/30 06:04:08;;;;;;;20.70;18.80;;;18.80;99.90;;;;;;4992473;28;20697;-80
2021/08/30 06:06:34;;;;;;;21.33;19.30;;;18.80;99.90;;;;;;4992200;28;20171;-80
2021/08/30 06:08:59;;;;;;;21.00;19.10;;;18.90;99.90;;;;;;4992905;28;20177;-79
2021/08/30 06:11:25;;;;;;;20.93;18.93;;;18.90;99.90;;;;;;4975345;28;20222;-80
2021/08/30 06:13:51;;;;;;;20.87;18.90;;;18.90;99.90;;;;;;4975432;28;20175;-80
2021/08/30 06:16:17;;;;;;;19.17;17.27;;;19.00;99.90;;;;;;4974734;28;20696;-78
2021/08/30 06:18:43;;;;;;;20.67;18.77;;;19.10;99.90;;;;;;4992267;28;20567;-77
2021/08/30 06:21:09;;;;;;;22.17;19.90;;;19.10;99.90;;;;;;4991795;28;20620;-78
2021/08/30 06:23:34;;;;;;;18.73;16.83;;;19.20;99.90;;;;;;4974878;28;20215;-77
2021/08/30 06:26:01;;;;;;;19.33;17.43;;;19.20;99.90;;;;;;4992086;28;20171;-77
2021/08/30 06:28:27;;;;;;;18.30;16.43;;;19.30;99.90;;;;;;4992293;28;21179;-77
2021/08/30 06:30:54;;;;;;;18.87;16.87;;;19.40;99.90;;;;;;4958080;28;20302;-77
2021/08/30 06:33:20;;;;;;;19.23;17.40;;;19.40;99.90;;;;;;4974703;28;20689;-78
2021/08/30 06:35:45;;;;;;;19.00;17.20;;;19.40;99.90;;;;;;4958223;28;20657;-77
2021/08/30 06:38:13;;;;;;;20.00;18.03;;;19.40;99.90;;;;;;4991897;28;20163;-78
2021/08/30 06:40:39;;;;;;;19.87;18.07;;;19.50;99.90;;;;;;4991986;28;20754;-78
2021/08/30 06:43:05;;;;;;;19.33;17.37;;;19.50;99.90;;;;;;4991871;28;20636;-77
2021/08/30 06:45:32;;;;;;;19.53;17.63;;;19.60;99.90;;;;;;4974581;28;21152;-77
2021/08/30 06:47:58;;;;;;;17.60;16.03;;;19.60;99.90;;;;;;4992017;28;20574;-78
2021/08/30 06:50:25;;;;;;;19.93;18.13;;;19.70;99.90;;;;;;4991913;28;20625;-78
2021/08/30 06:52:51;;;;;;;21.07;18.93;;;19.80;99.90;;;;;;4992260;28;20606;-78
2021/08/30 06:55:18;;;;;;;20.83;18.80;;;19.80;99.90;;;;;;4974405;28;20574;-78
2021/08/30 06:57:44;;;;;;;21.00;18.90;;;19.90;99.90;;;;;;4991923;28;20955;-75
2021/08/30 07:00:10;;;;;;;20.27;18.47;;;19.90;99.90;;;;;;4974664;28;20609;-77
2021/08/30 07:02:36;;;;;;;19.87;18.00;;;19.90;99.90;;;;;;4974969;28;20175;-78
2021/08/30 07:05:03;;;;;;;18.57;16.67;;;20.00;99.90;;;;;;4974709;28;21058;-79
2021/08/30 07:07:29;;;;;;;18.70;17.10;;;20.00;99.90;;;;;;4991374;28;20578;-78
2021/08/30 07:09:55;;;;;;;19.07;17.30;;;19.90;99.90;;;;;;4973945;28;20630;-78
2021/08/30 07:12:21;;;;;;;19.00;17.20;;;20.00;99.90;;;;;;4974162;28;20776;-78
2021/08/30 07:14:46;;;;;;;18.30;16.33;;;19.90;99.90;;;;;;4973868;28;20167;-78
2021/08/30 07:17:12;;;;;;;16.50;14.97;;;19.90;99.90;;;;;;4993981;28;20257;-77
2021/08/30 07:19:38;;;;;;;18.63;17.03;;;19.90;99.90;;;;;;4977983;28;20167;-77
2021/08/30 07:22:05;;;;;;;18.73;16.93;;;19.80;99.90;;;;;;4995174;28;20214;-76
2021/08/30 07:24:31;;;;;;;18.87;17.07;;;19.80;99.90;;;;;;4977770;28;20578;-77
2021/08/30 07:26:56;;;;;;;17.87;16.17;;;19.80;99.90;;;;;;4995124;28;20577;-77
2021/08/30 07:29:22;;;;;;;17.00;15.43;;;19.80;99.90;;;;;;4975068;28;20229;-77
2021/08/30 07:31:48;;;;;;;19.37;17.47;;;19.80;99.90;;;;;;4994753;28;20238;-77
2021/08/30 07:34:14;;;;;;;19.90;18.00;;;19.80;99.90;;;;;;4976995;28;20167;-75
2021/08/30 07:36:40;;;;;;;17.77;16.17;;;19.80;99.90;;;;;;4977265;28;20611;-78
2021/08/30 07:39:06;;;;;;;18.30;16.70;;;19.70;99.90;;;;;;4977560;28;20609;-78
2021/08/30 07:41:32;;;;;;;19.20;17.40;;;19.70;99.90;;;;;;4978348;28;20612;-76
2021/08/30 07:43:58;;;;;;;22.30;20.00;;;19.70;99.90;;;;;;4977905;28;20270;-77
2021/08/30 07:46:25;;;;;;;23.80;21.30;;;19.70;99.90;;;;;;4962290;28;20633;-78
2021/08/30 07:48:51;;;;;;;23.20;21.03;;;19.70;99.90;;;;;;4995165;28;20611;-78
2021/08/30 07:51:18;;;;;;;22.90;20.60;;;19.70;99.90;;;;;;4995483;28;20633;-78
2021/08/30 07:53:44;;;;;;;23.53;19.87;;;19.80;99.90;;;;;;4978155;28;20266;-78
2021/08/30 07:56:11;;;;;;;20.03;18.10;;;19.80;99.90;;;;;;4985073;28;20991;-77
2021/08/30 07:58:37;;;;;;;20.47;18.40;;;19.80;99.90;;;;;;4989692;28;20574;-78
2021/08/30 08:01:03;;;;;;;21.10;19.10;;;19.80;99.90;;;;;;4991182;28;21120;-77
2021/08/30 08:03:29;;;;;;;17.97;16.47;;;19.90;99.90;;;;;;5009768;28;20582;-78
2021/08/30 08:05:55;;;;;;;20.60;18.70;;;19.90;99.90;;;;;;4990253;28;20609;-77
2021/08/30 08:08:20;;;;;;;21.00;18.90;;;20.00;99.90;;;;;;4989996;28;20178;-77
2021/08/30 08:10:46;;;;;;;20.87;18.80;;;20.10;99.90;;;;;;5001626;28;21222;-77
2021/08/30 08:13:12;;;;;;;23.00;20.97;;;20.10;99.90;;;;;;4995310;28;20163;-77
2021/08/30 08:15:39;;;;;;;22.13;19.93;;;20.30;99.90;;;;;;4977161;28;20175;-77
2021/08/30 08:18:05;;;;;;;23.53;21.20;;;20.30;99.90;;;;;;4961343;28;20589;-77
2021/08/30 08:20:32;;;;;;;21.27;19.47;;;20.40;99.90;;;;;;4960726;28;21165;-76
2021/08/30 08:22:59;;;;;;;21.73;18.50;;;20.60;99.90;;;;;;4994725;28;21060;-77
2021/08/30 08:25:25;;;;;;;22.50;18.70;;;21.00;99.90;;;;;;4994392;28;20927;-76
2021/08/30 08:27:50;;;;;;;21.17;19.10;;;21.30;99.90;;;;;;4993517;28;20574;-77
2021/08/30 08:30:16;;;;;;;22.00;19.70;;;21.50;99.90;;;;;;4994034;28;20202;-77
2021/08/30 08:32:43;;;;;;;19.30;17.50;;;21.60;99.90;;;;;;4976815;28;20635;-77
2021/08/30 08:35:10;;;;;;;20.73;18.73;;;21.70;99.90;;;;;;4994260;28;20167;-77
2021/08/30 08:37:36;;;;;;;17.80;16.20;;;21.80;99.90;;;;;;4993802;28;20582;-77
2021/08/30 08:40:05;;;;;;;19.33;17.63;;;21.90;99.90;;;;;;4976659;28;20614;-77
2021/08/30 08:42:31;;;;;;;18.10;16.47;;;21.90;99.90;;;;;;4994483;28;21176;-78
2021/08/30 08:44:57;;;;;;;20.87;18.67;;;21.90;99.90;;;;;;5003483;28;20570;-76
2021/08/30 08:47:23;;;;;;;19.47;17.77;;;22.00;99.90;;;;;;4987868;28;20633;-76
2021/08/30 08:49:52;;;;;;;19.37;17.60;;;22.00;99.90;;;;;;4973568;28;20203;-77
2021/08/30 08:52:20;;;;;;;16.97;15.57;;;22.10;99.90;;;;;;4990528;28;20943;-77
2021/08/30 08:54:46;;;;;;;17.43;15.83;;;22.20;99.90;;;;;;4991136;28;20582;-76
2021/08/30 08:57:12;;;;;;;19.30;17.60;;;22.40;99.90;;;;;;4988042;28;20574;-77
2021/08/30 08:59:38;;;;;;;17.73;16.17;;;22.50;99.90;;;;;;4989295;28;20151;-76
2021/08/30 09:02:06;;;;;;;18.20;16.70;;;22.70;99.90;;;;;;4977653;28;20193;-76
2021/08/30 09:04:36;;;;;;;15.97;14.53;;;22.80;99.90;;;;;;4978217;28;20609;-77
2021/08/30 09:07:12;;;;;;;17.23;15.83;;;23.30;99.90;;;;;;4994295;28;20608;-78
2021/08/30 09:09:40;;;;;;;16.90;15.40;;;23.80;99.90;;;;;;4994411;28;20601;-76
2021/08/30 09:12:27;;;;;;;15.47;14.03;;;24.30;99.90;;;;;;4977250;28;20725;-77
2021/08/30 09:14:53;;;;;;;16.30;14.80;;;24.50;99.90;;;;;;4993813;28;20701;-77
2021/08/30 09:17:19;;;;;;;14.70;13.37;;;24.70;99.90;;;;;;4993583;28;20578;-77
2021/08/30 09:19:45;;;;;;;15.43;14.23;;;24.90;99.90;;;;;;4976376;28;21039;-78
2021/08/30 09:22:12;;;;;;;14.37;12.97;;;24.90;99.90;;;;;;4960069;28;20258;-78
2021/08/30 09:24:38;;;;;;;12.80;11.63;;;25.00;99.90;;;;;;4975828;28;20171;-78
2021/08/30 09:27:09;;;;;;;13.27;12.17;;;25.10;99.90;;;;;;4959426;28;20643;-78
2021/08/30 09:29:41;;;;;;;11.67;10.50;;;25.10;99.90;;;;;;4975713;28;20582;-78
2021/08/30 09:32:14;;;;;;;12.33;11.20;;;25.20;99.90;;;;;;5001049;23;20677;-82
2021/08/30 09:34:43;;;;;;;11.23;10.30;;;25.30;99.90;;;;;;4973644;28;20606;-82
2021/08/30 09:37:24;;;;;;;13.07;12.00;;;25.40;99.90;;;;;;4962050;28;20567;-82
2021/08/30 09:39:54;;;;;;;15.07;13.70;;;25.60;99.90;;;;;;4964477;28;20570;-81
2021/08/30 09:42:20;;;;;;;14.10;12.80;;;25.70;99.90;;;;;;4995156;28;20605;-82
2021/08/30 09:44:46;;;;;;;12.47;11.33;;;25.70;99.90;;;;;;5012500;28;20605;-82
2021/08/30 09:47:19;;;;;;;11.70;10.67;;;25.60;99.90;;;;;;4979584;28;20616;-81
2021/08/30 09:49:52;;;;;;;12.90;11.80;;;25.50;99.90;;;;;;4997402;28;20174;-82
2021/08/30 09:52:20;;;;;;;15.23;13.13;;;25.40;99.90;;;;;;4996530;28;20648;-81
2021/08/30 09:54:46;;;;;;;12.77;11.63;;;25.30;99.90;;;;;;4999455;28;20601;-82
2021/08/30 09:57:13;;;;;;;14.03;13.00;;;25.10;99.90;;;;;;5018910;28;20659;-82
2021/08/30 09:59:42;;;;;;;13.73;12.50;;;24.80;99.90;;;;;;5021293;28;20565;-81
2021/08/30 10:02:11;;;;;;;13.37;12.20;;;24.60;99.90;;;;;;5014154;28;20593;-82
2021/08/30 10:04:39;;;;;;;14.43;13.10;;;24.30;99.90;;;;;;4997948;28;20565;-82
2021/08/30 10:07:06;;;;;;;13.50;12.40;;;24.10;99.90;;;;;;5013559;28;20613;-82
2021/08/30 10:09:34;;;;;;;14.17;12.77;;;23.90;99.90;;;;;;4996501;28;20998;-82
2021/08/30 10:12:03;;;;;;;14.40;12.97;;;23.80;99.90;;;;;;4996840;28;20749;-82
2021/08/30 10:14:30;;;;;;;16.00;14.60;;;23.60;99.90;;;;;;5012629;28;20662;-82
2021/08/30 10:16:57;;;;;;;16.57;14.57;;;23.50;99.90;;;;;;5012066;28;20558;-83
2021/08/30 10:19:33;;;;;;;13.27;12.07;;;23.40;99.90;;;;;;4978623;28;20569;-83
2021/08/30 10:22:01;;;;;;;14.70;13.20;;;23.30;99.90;;;;;;5012495;28;20724;-83
2021/08/30 10:24:39;;;;;;;14.30;13.10;;;23.20;99.90;;;;;;5012048;28;20648;-83
2021/08/30 10:27:09;;;;;;;15.90;14.50;;;23.20;99.90;;;;;;4994216;28;20577;-83
2021/08/30 10:29:35;;;;;;;15.90;14.50;;;23.10;99.90;;;;;;5008029;28;20582;-82
2021/08/30 10:32:01;;;;;;;14.20;12.80;;;23.10;99.90;;;;;;5012053;28;20633;-82
2021/08/30 10:34:29;;;;;;;12.43;11.43;;;23.10;99.90;;;;;;4994415;28;20561;-82
2021/08/30 10:36:57;;;;;;;14.67;13.40;;;23.10;99.90;;;;;;5015026;28;20937;-83
2021/08/30 10:39:24;;;;;;;16.17;14.73;;;23.10;99.90;;;;;;4994449;28;20988;-82
2021/08/30 10:41:50;;;;;;;14.83;13.50;;;23.10;99.90;;;;;;5012288;28;20621;-83
2021/08/30 10:44:21;;;;;;;15.80;14.30;;;23.10;99.90;;;;;;5011987;28;20569;-83
2021/08/30 10:46:55;;;;;;;15.70;14.00;;;23.10;99.90;;;;;;4994064;28;20590;-83
2021/08/30 10:49:29;;;;;;;16.17;14.57;;;23.00;99.90;;;;;;5012153;28;20588;-82
2021/08/30 10:52:13;;;;;;;16.57;14.90;;;22.90;99.90;;;;;;4996782;28;20632;-82
2021/08/30 10:54:48;;;;;;;17.70;14.80;;;22.70;99.90;;;;;;4998290;28;20569;-82
2021/08/30 10:57:14;;;;;;;14.03;12.73;;;22.70;99.90;;;;;;5015683;28;20568;-82
2021/08/30 10:59:43;;;;;;;13.20;12.00;;;22.60;99.90;;;;;;5015661;28;20982;-82
2021/08/30 11:02:09;;;;;;;13.67;12.37;;;22.50;99.90;;;;;;5015744;28;20620;-82
2021/08/30 11:04:39;;;;;;;15.87;14.37;;;22.30;99.90;;;;;;5016081;28;20577;-81
2021/08/30 11:07:07;;;;;;;17.60;14.37;;;22.30;99.90;;;;;;5014550;28;20609;-82
2021/08/30 11:09:33;;;;;;;14.60;13.30;;;22.20;99.90;;;;;;5015772;28;20648;-81
2021/08/30 11:12:14;;;;;;;14.00;12.53;;;22.20;99.90;;;;;;4989565;28;20640;-83
2021/08/30 11:14:56;;;;;;;14.27;12.87;;;22.10;99.90;;;;;;5020928;28;20553;-82
2021/08/30 11:17:27;;;;;;;13.83;12.40;;;22.10;99.90;;;;;;4980993;28;20592;-82
2021/08/30 11:19:56;;;;;;;13.83;12.47;;;22.20;99.90;;;;;;5015360;28;20565;-81
2021/08/30 11:22:22;;;;;;;12.83;11.80;;;22.30;99.90;;;;;;4997859;28;20902;-82
2021/08/30 11:24:48;;;;;;;14.20;13.07;;;22.40;99.90;;;;;;5015218;28;20925;-82
2021/08/30 11:27:24;;;;;;;14.37;13.07;;;22.60;99.90;;;;;;5014716;28;20569;-82
2021/08/30 11:29:55;;;;;;;13.03;11.83;;;22.80;99.90;;;;;;5015758;28;20627;-83
2021/08/30 11:32:28;;;;;;;12.67;11.47;;;23.00;99.90;;;;;;5016704;28;20641;-82
2021/08/30 11:34:55;;;;;;;14.30;13.00;;;23.30;99.90;;;;;;4999656;28;20993;-82
2021/08/30 11:37:23;;;;;;;12.70;11.50;;;23.50;99.90;;;;;;5016661;28;21104;-83
2021/08/30 11:39:51;;;;;;;12.13;11.03;;;23.80;99.90;;;;;;5017269;28;20660;-82
2021/08/30 11:42:26;;;;;;;11.77;10.77;;;24.00;99.90;;;;;;5008626;28;20705;-83
2021/08/30 11:44:53;;;;;;;11.57;10.47;;;24.30;99.90;;;;;;5010002;28;20579;-82
2021/08/30 11:47:21;;;;;;;11.53;10.53;;;24.50;99.90;;;;;;5013876;28;20684;-83
2021/08/30 11:49:55;;;;;;;10.77;9.93;;;24.70;99.90;;;;;;4989143;28;20585;-83
2021/08/30 11:52:27;;;;;;;12.03;10.93;;;24.80;99.90;;;;;;5021966;28;20648;-84
2021/08/30 11:55:03;;;;;;;10.10;9.20;;;24.90;99.90;;;;;;5019852;28;20626;-83
2021/08/30 11:57:44;;;;;;;10.60;9.80;;;25.00;99.90;;;;;;5003505;28;20573;-83
2021/08/30 12:00:22;;;;;;;10.50;9.70;;;25.10;99.90;;;;;;5025572;28;20580;-84
2021/08/30 12:02:54;;;;;;;11.10;8.10;;;25.30;99.90;;;;;;4982965;28;20582;-83
2021/08/30 12:05:20;;;;;;;8.73;8.03;;;25.40;99.90;;;;;;5018694;28;21113;-83
2021/08/30 12:07:46;;;;;;;8.93;8.13;;;25.50;99.90;;;;;;5005429;28;20600;-83
2021/08/30 12:10:13;;;;;;;9.80;9.00;;;25.70;99.90;;;;;;4984731;28;20812;-83
2021/08/30 12:12:56;;;;;;;10.43;9.53;;;25.80;99.90;;;;;;5016387;28;20272;-83
2021/08/30 12:15:27;;;;;;;10.33;9.53;;;25.80;99.90;;;;;;5015740;28;20596;-83
2021/08/30 12:17:55;;;;;;;10.20;9.30;;;25.80;99.90;;;;;;5015444;28;20573;-83
2021/08/30 12:20:29;;;;;;;9.83;9.03;;;25.80;99.90;;;;;;4999435;28;20612;-83
2021/08/30 12:22:57;;;;;;;9.53;8.67;;;25.70;99.90;;;;;;5016222;28;20581;-83
2021/08/30 12:25:26;;;;;;;8.30;7.50;;;25.70;99.90;;;;;;5000819;28;20576;-83
2021/08/30 12:27:53;;;;;;;8.17;7.37;;;25.80;99.90;;;;;;5021283;28;20574;-83
2021/08/30 12:30:31;;;;;;;9.00;8.20;;;25.80;99.90;;;;;;4998446;28;20573;-83
2021/08/30 12:32:59;;;;;;;8.87;8.17;;;25.90;99.90;;;;;;4998249;28;20570;-83
2021/08/30 12:35:50;;;;;;;7.90;7.20;;;26.10;99.90;;;;;;4998382;28;20561;-83